Other Surface Observations
Issued by NWS Missoula, MT

Home | Current Version | Previous Version | Text Only | Print | Product List | Glossary On
Versions: 1 2 3 4 5 6 7 8 9 10 11 12 13 14 15 16 17 18 19 20 21 22 23 24 25 26 27 28 29 30 31 32 33 34 35 36 37 38 39 40 41 42 43 44 45 46 47 48 49 50
000
SXUS55 KMSO 302303
OSOMSO
MONTANA AWOS SUMMARY
NATIONAL WEATHER SERVICE MISSOULA MT
503 PM MDT SAT MAY 30 2015

Montana AWOS Reports

TWIN BRIDGES|K7S1 302255Z AUTO 10014KT 40SM 18/08 A3003 RMK AO1 T01780083
ROUNDUP     |KRPX 302255Z AUTO 00000KT 15SM 16/11 A2990 RMK AO1 T01560106
MALTA       |KM75 302255Z AUTO 07011KT 40SM 21/08 A2996 RMK AO1 T02060078




USA.gov is the U.S. government's official web portal to all federal, state and local government web resources and services.